CZ-0032 weather

Hospital Heliport
Rakovník, Central Bohemian Region, Czechia

Public forecast

Using degrees Celsius for public forecast. Weather courtesy of forecast.io.

Closest aviation weather report (METAR) to Hospital Heliport

Closest report is Václav Havel Airport Prague, 20.9 nm (38.6 km) E. Retrieved 2019/10/13 19:30 UTC (21 minutes ago):

LKPR 131930Z 19003KT 120V280 CAVOK 14/11 Q1017 NOSIG

Closest aviation forecast (TAF) to Hospital Heliport

Closest forecast is Václav Havel Airport Prague, 20.9 nm (38.6 km) E. Retrieved 2019/10/13 18:26 UTC (1 hour ago):

TAF LKPR 131700Z 1318/1500 17006KT CAVOK BECMG 1323/1401 VRB02KT PROB30 TEMPO 1402/1407 5000 BR NSC BECMG 1407/1409 14006KT